sensor_id;sensor_type;location;lat;lon;timestamp;P1;durP1;ratioP1;P2;durP2;ratioP2
25345;SDS011;13300;51.032;3.710;2023-02-03T00:02:24;17.55;;;4.40;;
25345;SDS011;13300;51.032;3.710;2023-02-03T00:04:50;18.35;;;4.60;;
25345;SDS011;13300;51.032;3.710;2023-02-03T00:07:16;18.90;;;4.07;;
25345;SDS011;13300;51.032;3.710;2023-02-03T00:09:43;19.50;;;5.00;;
25345;SDS011;13300;51.032;3.710;2023-02-03T00:12:08;20.00;;;4.68;;
25345;SDS011;13300;51.032;3.710;2023-02-03T00:14:34;21.10;;;5.28;;
25345;SDS011;13300;51.032;3.710;2023-02-03T00:17:08;15.95;;;4.55;;
25345;SDS011;13300;51.032;3.710;2023-02-03T00:19:34;20.38;;;4.70;;
25345;SDS011;13300;51.032;3.710;2023-02-03T00:22:01;13.23;;;4.40;;
25345;SDS011;13300;51.032;3.710;2023-02-03T00:24:27;15.18;;;4.22;;
25345;SDS011;13300;51.032;3.710;2023-02-03T00:27:09;12.13;;;3.78;;
25345;SDS011;13300;51.032;3.710;2023-02-03T00:29:35;15.52;;;4.03;;
25345;SDS011;13300;51.032;3.710;2023-02-03T00:32:01;9.35;;;4.13;;
25345;SDS011;13300;51.032;3.710;2023-02-03T00:34:30;17.85;;;4.30;;
25345;SDS011;13300;51.032;3.710;2023-02-03T00:36:58;14.80;;;3.50;;
25345;SDS011;13300;51.032;3.710;2023-02-03T00:39:24;14.75;;;3.80;;
25345;SDS011;13300;51.032;3.710;2023-02-03T00:41:54;14.48;;;3.20;;
25345;SDS011;13300;51.032;3.710;2023-02-03T00:44:20;13.07;;;3.05;;
25345;SDS011;13300;51.032;3.710;2023-02-03T00:46:46;12.70;;;2.95;;
25345;SDS011;13300;51.032;3.710;2023-02-03T00:49:13;14.05;;;2.67;;
25345;SDS011;13300;51.032;3.710;2023-02-03T00:51:41;12.55;;;2.55;;
25345;SDS011;13300;51.032;3.710;2023-02-03T00:54:12;15.95;;;2.58;;
25345;SDS011;13300;51.032;3.710;2023-02-03T00:56:43;10.32;;;2.60;;
25345;SDS011;13300;51.032;3.710;2023-02-03T00:59:10;11.93;;;2.70;;
25345;SDS011;13300;51.032;3.710;2023-02-03T01:01:36;10.18;;;2.45;;
25345;SDS011;13300;51.032;3.710;2023-02-03T01:04:03;16.13;;;2.50;;
25345;SDS011;13300;51.032;3.710;2023-02-03T01:06:29;11.88;;;2.75;;
25345;SDS011;13300;51.032;3.710;2023-02-03T01:08:55;13.32;;;3.08;;
25345;SDS011;13300;51.032;3.710;2023-02-03T01:11:27;14.93;;;2.83;;
25345;SDS011;13300;51.032;3.710;2023-02-03T01:13:54;14.50;;;2.72;;
25345;SDS011;13300;51.032;3.710;2023-02-03T01:16:23;11.23;;;2.40;;
25345;SDS011;13300;51.032;3.710;2023-02-03T01:18:50;10.93;;;2.25;;
25345;SDS011;13300;51.032;3.710;2023-02-03T01:21:18;12.52;;;2.70;;
25345;SDS011;13300;51.032;3.710;2023-02-03T01:23:46;10.17;;;2.57;;
25345;SDS011;13300;51.032;3.710;2023-02-03T01:26:15;11.18;;;2.35;;
25345;SDS011;13300;51.032;3.710;2023-02-03T01:28:43;15.68;;;2.63;;
25345;SDS011;13300;51.032;3.710;2023-02-03T01:31:18;16.75;;;2.40;;
25345;SDS011;13300;51.032;3.710;2023-02-03T01:33:50;10.82;;;2.60;;
25345;SDS011;13300;51.032;3.710;2023-02-03T01:36:38;8.63;;;2.05;;
25345;SDS011;13300;51.032;3.710;2023-02-03T01:39:04;11.95;;;2.30;;
25345;SDS011;13300;51.032;3.710;2023-02-03T01:41:32;13.40;;;2.28;;
25345;SDS011;13300;51.032;3.710;2023-02-03T01:44:00;10.02;;;2.17;;
25345;SDS011;13300;51.032;3.710;2023-02-03T01:46:46;10.45;;;2.17;;
25345;SDS011;13300;51.032;3.710;2023-02-03T01:49:26;10.90;;;2.20;;
25345;SDS011;13300;51.032;3.710;2023-02-03T01:51:59;10.00;;;3.25;;
25345;SDS011;13300;51.032;3.710;2023-02-03T01:54:29;13.45;;;2.83;;
25345;SDS011;13300;51.032;3.710;2023-02-03T01:57:03;9.10;;;2.00;;
25345;SDS011;13300;51.032;3.710;2023-02-03T01:59:43;11.88;;;2.20;;
25345;SDS011;13300;51.032;3.710;2023-02-03T02:02:13;11.60;;;2.33;;
25345;SDS011;13300;51.032;3.710;2023-02-03T02:07:30;12.05;;;2.17;;
25345;SDS011;13300;51.032;3.710;2023-02-03T02:09:58;8.73;;;2.40;;
25345;SDS011;13300;51.032;3.710;2023-02-03T02:12:28;9.18;;;1.98;;
25345;SDS011;13300;51.032;3.710;2023-02-03T02:14:54;11.43;;;2.63;;
25345;SDS011;13300;51.032;3.710;2023-02-03T02:17:25;12.75;;;1.98;;
25345;SDS011;13300;51.032;3.710;2023-02-03T02:20:24;6.57;;;1.80;;
25345;SDS011;13300;51.032;3.710;2023-02-03T02:37:37;12.00;;;2.10;;
25345;SDS011;13300;51.032;3.710;2023-02-03T02:40:20;9.13;;;2.08;;
25345;SDS011;13300;51.032;3.710;2023-02-03T02:43:18;14.23;;;2.95;;
25345;SDS011;13300;51.032;3.710;2023-02-03T02:46:18;10.90;;;2.22;;
25345;SDS011;13300;51.032;3.710;2023-02-03T02:51:29;7.88;;;2.03;;
25345;SDS011;13300;51.032;3.710;2023-02-03T02:54:04;8.20;;;2.17;;
25345;SDS011;13300;51.032;3.710;2023-02-03T02:56:33;10.13;;;2.55;;
25345;SDS011;13300;51.032;3.710;2023-02-03T02:59:02;15.65;;;2.20;;
25345;SDS011;13300;51.032;3.710;2023-02-03T03:01:30;10.48;;;2.40;;
25345;SDS011;13300;51.032;3.710;2023-02-03T03:03:56;6.68;;;1.65;;
25345;SDS011;13300;51.032;3.710;2023-02-03T03:06:28;9.45;;;2.38;;
25345;SDS011;13300;51.032;3.710;2023-02-03T03:11:38;9.68;;;1.92;;
25345;SDS011;13300;51.032;3.710;2023-02-03T03:14:09;10.68;;;2.13;;
25345;SDS011;13300;51.032;3.710;2023-02-03T03:16:37;9.13;;;2.13;;
25345;SDS011;13300;51.032;3.710;2023-02-03T03:19:12;8.43;;;1.80;;
25345;SDS011;13300;51.032;3.710;2023-02-03T03:21:58;4.80;;;1.65;;
25345;SDS011;13300;51.032;3.710;2023-02-03T03:24:28;11.65;;;1.92;;
25345;SDS011;13300;51.032;3.710;2023-02-03T03:27:14;8.15;;;2.33;;
25345;SDS011;13300;51.032;3.710;2023-02-03T03:29:55;8.20;;;2.15;;
25345;SDS011;13300;51.032;3.710;2023-02-03T03:32:31;8.50;;;2.38;;
25345;SDS011;13300;51.032;3.710;2023-02-03T03:34:59;6.10;;;1.77;;
25345;SDS011;13300;51.032;3.710;2023-02-03T03:37:34;10.05;;;1.40;;
25345;SDS011;13300;51.032;3.710;2023-02-03T03:40:08;8.35;;;1.88;;
25345;SDS011;13300;51.032;3.710;2023-02-03T03:46:05;8.93;;;1.70;;
25345;SDS011;13300;51.032;3.710;2023-02-03T03:48:41;4.33;;;1.53;;
25345;SDS011;13300;51.032;3.710;2023-02-03T03:54:06;9.48;;;1.70;;
25345;SDS011;13300;51.032;3.710;2023-02-03T03:56:36;4.90;;;1.13;;
25345;SDS011;13300;51.032;3.710;2023-02-03T03:59:24;7.78;;;1.63;;
25345;SDS011;13300;51.032;3.710;2023-02-03T04:01:53;10.45;;;1.98;;
25345;SDS011;13300;51.032;3.710;2023-02-03T04:04:20;4.45;;;1.63;;
25345;SDS011;13300;51.032;3.710;2023-02-03T04:06:48;5.38;;;1.52;;
25345;SDS011;13300;51.032;3.710;2023-02-03T04:09:14;6.97;;;1.50;;
25345;SDS011;13300;51.032;3.710;2023-02-03T04:11:42;7.13;;;1.60;;
25345;SDS011;13300;51.032;3.710;2023-02-03T04:14:30;4.55;;;1.83;;
25345;SDS011;13300;51.032;3.710;2023-02-03T04:16:57;6.22;;;1.40;;
25345;SDS011;13300;51.032;3.710;2023-02-03T04:19:24;5.15;;;1.92;;
25345;SDS011;13300;51.032;3.710;2023-02-03T04:21:50;5.85;;;1.67;;
25345;SDS011;13300;51.032;3.710;2023-02-03T04:24:16;4.57;;;1.45;;
25345;SDS011;13300;51.032;3.710;2023-02-03T04:26:42;5.95;;;1.50;;
25345;SDS011;13300;51.032;3.710;2023-02-03T04:29:09;7.55;;;1.75;;
25345;SDS011;13300;51.032;3.710;2023-02-03T04:31:35;8.95;;;1.95;;
25345;SDS011;13300;51.032;3.710;2023-02-03T04:34:03;7.75;;;2.10;;
25345;SDS011;13300;51.032;3.710;2023-02-03T04:36:29;9.48;;;1.58;;
25345;SDS011;13300;51.032;3.710;2023-02-03T04:38:56;7.60;;;1.80;;
25345;SDS011;13300;51.032;3.710;2023-02-03T04:41:21;7.35;;;1.90;;
25345;SDS011;13300;51.032;3.710;2023-02-03T04:43:47;5.57;;;1.58;;
25345;SDS011;13300;51.032;3.710;2023-02-03T04:46:13;9.20;;;2.03;;
25345;SDS011;13300;51.032;3.710;2023-02-03T04:48:45;7.78;;;1.98;;
25345;SDS011;13300;51.032;3.710;2023-02-03T04:51:11;8.75;;;2.58;;
25345;SDS011;13300;51.032;3.710;2023-02-03T04:53:37;7.22;;;2.67;;
25345;SDS011;13300;51.032;3.710;2023-02-03T04:56:03;14.90;;;3.20;;
25345;SDS011;13300;51.032;3.710;2023-02-03T04:58:30;8.30;;;2.80;;
25345;SDS011;13300;51.032;3.710;2023-02-03T05:00:56;9.88;;;3.25;;
25345;SDS011;13300;51.032;3.710;2023-02-03T05:03:22;15.20;;;3.25;;
25345;SDS011;13300;51.032;3.710;2023-02-03T05:05:48;14.43;;;3.67;;
25345;SDS011;13300;51.032;3.710;2023-02-03T05:08:14;13.60;;;3.30;;
25345;SDS011;13300;51.032;3.710;2023-02-03T05:10:40;6.25;;;2.65;;
25345;SDS011;13300;51.032;3.710;2023-02-03T05:13:07;10.55;;;2.72;;
25345;SDS011;13300;51.032;3.710;2023-02-03T05:15:32;7.35;;;2.35;;
25345;SDS011;13300;51.032;3.710;2023-02-03T05:18:01;11.00;;;2.13;;
25345;SDS011;13300;51.032;3.710;2023-02-03T05:20:27;13.02;;;2.60;;
25345;SDS011;13300;51.032;3.710;2023-02-03T05:22:53;6.70;;;1.80;;
25345;SDS011;13300;51.032;3.710;2023-02-03T05:25:19;9.85;;;2.05;;
25345;SDS011;13300;51.032;3.710;2023-02-03T05:27:44;10.07;;;1.70;;
25345;SDS011;13300;51.032;3.710;2023-02-03T05:30:10;7.70;;;1.67;;
25345;SDS011;13300;51.032;3.710;2023-02-03T05:32:37;7.28;;;1.80;;
25345;SDS011;13300;51.032;3.710;2023-02-03T05:35:02;8.07;;;1.98;;
25345;SDS011;13300;51.032;3.710;2023-02-03T05:37:28;6.15;;;1.63;;
25345;SDS011;13300;51.032;3.710;2023-02-03T05:39:54;7.60;;;1.80;;
25345;SDS011;13300;51.032;3.710;2023-02-03T05:42:45;6.60;;;1.63;;
25345;SDS011;13300;51.032;3.710;2023-02-03T05:45:14;7.90;;;1.50;;
25345;SDS011;13300;51.032;3.710;2023-02-03T05:47:41;9.65;;;1.20;;
25345;SDS011;13300;51.032;3.710;2023-02-03T05:50:07;9.82;;;1.55;;
25345;SDS011;13300;51.032;3.710;2023-02-03T05:52:34;5.88;;;1.55;;
25345;SDS011;13300;51.032;3.710;2023-02-03T05:55:01;4.00;;;1.48;;
25345;SDS011;13300;51.032;3.710;2023-02-03T05:57:27;4.57;;;1.20;;
25345;SDS011;13300;51.032;3.710;2023-02-03T05:59:53;6.07;;;1.65;;
25345;SDS011;13300;51.032;3.710;2023-02-03T06:02:19;7.38;;;1.38;;
25345;SDS011;13300;51.032;3.710;2023-02-03T06:04:45;3.22;;;1.30;;
25345;SDS011;13300;51.032;3.710;2023-02-03T06:07:10;5.05;;;1.40;;
25345;SDS011;13300;51.032;3.710;2023-02-03T06:09:36;4.72;;;1.52;;
25345;SDS011;13300;51.032;3.710;2023-02-03T06:12:02;9.15;;;1.65;;
25345;SDS011;13300;51.032;3.710;2023-02-03T06:14:28;8.48;;;1.75;;
25345;SDS011;13300;51.032;3.710;2023-02-03T06:16:54;6.78;;;1.73;;
25345;SDS011;13300;51.032;3.710;2023-02-03T06:19:20;8.00;;;1.77;;
25345;SDS011;13300;51.032;3.710;2023-02-03T06:21:46;6.90;;;1.33;;
25345;SDS011;13300;51.032;3.710;2023-02-03T06:24:12;7.10;;;1.67;;
25345;SDS011;13300;51.032;3.710;2023-02-03T06:26:38;8.32;;;1.52;;
25345;SDS011;13300;51.032;3.710;2023-02-03T06:29:03;6.78;;;1.30;;
25345;SDS011;13300;51.032;3.710;2023-02-03T06:31:40;5.93;;;1.67;;
25345;SDS011;13300;51.032;3.710;2023-02-03T06:34:12;4.88;;;1.60;;
25345;SDS011;13300;51.032;3.710;2023-02-03T06:36:48;6.90;;;1.73;;
25345;SDS011;13300;51.032;3.710;2023-02-03T06:39:21;6.93;;;1.73;;
25345;SDS011;13300;51.032;3.710;2023-02-03T06:42:00;4.45;;;1.52;;
25345;SDS011;13300;51.032;3.710;2023-02-03T06:44:28;5.80;;;1.40;;
25345;SDS011;13300;51.032;3.710;2023-02-03T06:46:56;8.43;;;1.35;;
25345;SDS011;13300;51.032;3.710;2023-02-03T06:49:23;11.43;;;1.80;;
25345;SDS011;13300;51.032;3.710;2023-02-03T06:51:49;9.55;;;2.03;;
25345;SDS011;13300;51.032;3.710;2023-02-03T06:54:16;6.75;;;1.70;;
25345;SDS011;13300;51.032;3.710;2023-02-03T06:56:42;10.23;;;2.03;;
25345;SDS011;13300;51.032;3.710;2023-02-03T06:59:08;5.72;;;1.85;;
25345;SDS011;13300;51.032;3.710;2023-02-03T07:01:35;3.95;;;1.20;;
25345;SDS011;13300;51.032;3.710;2023-02-03T07:04:02;9.07;;;1.80;;
25345;SDS011;13300;51.032;3.710;2023-02-03T07:06:28;5.88;;;1.75;;
25345;SDS011;13300;51.032;3.710;2023-02-03T07:08:57;6.00;;;1.33;;
25345;SDS011;13300;51.032;3.710;2023-02-03T07:13:59;9.45;;;1.88;;
25345;SDS011;13300;51.032;3.710;2023-02-03T07:16:25;8.75;;;1.77;;
25345;SDS011;13300;51.032;3.710;2023-02-03T07:18:52;9.48;;;1.88;;
25345;SDS011;13300;51.032;3.710;2023-02-03T07:21:18;10.43;;;1.95;;
25345;SDS011;13300;51.032;3.710;2023-02-03T07:23:47;10.07;;;1.88;;
25345;SDS011;13300;51.032;3.710;2023-02-03T07:26:13;8.23;;;1.70;;
25345;SDS011;13300;51.032;3.710;2023-02-03T07:28:40;9.18;;;1.80;;
25345;SDS011;13300;51.032;3.710;2023-02-03T07:31:15;8.23;;;1.60;;
25345;SDS011;13300;51.032;3.710;2023-02-03T07:33:42;7.35;;;2.15;;
25345;SDS011;13300;51.032;3.710;2023-02-03T07:36:08;8.43;;;2.05;;
25345;SDS011;13300;51.032;3.710;2023-02-03T07:38:34;8.45;;;1.90;;
25345;SDS011;13300;51.032;3.710;2023-02-03T07:41:02;7.78;;;1.77;;
25345;SDS011;13300;51.032;3.710;2023-02-03T07:43:32;4.78;;;1.70;;
25345;SDS011;13300;51.032;3.710;2023-02-03T07:45:58;8.77;;;1.98;;
25345;SDS011;13300;51.032;3.710;2023-02-03T07:48:25;5.82;;;1.88;;
25345;SDS011;13300;51.032;3.710;2023-02-03T07:50:51;7.90;;;1.67;;
25345;SDS011;13300;51.032;3.710;2023-02-03T07:53:17;9.45;;;2.05;;
25345;SDS011;13300;51.032;3.710;2023-02-03T07:55:43;9.55;;;2.05;;
25345;SDS011;13300;51.032;3.710;2023-02-03T07:58:09;6.05;;;2.10;;
25345;SDS011;13300;51.032;3.710;2023-02-03T08:00:35;7.15;;;2.05;;
25345;SDS011;13300;51.032;3.710;2023-02-03T08:03:00;5.95;;;1.85;;
25345;SDS011;13300;51.032;3.710;2023-02-03T08:05:27;6.70;;;1.83;;
25345;SDS011;13300;51.032;3.710;2023-02-03T08:07:54;5.03;;;1.45;;
25345;SDS011;13300;51.032;3.710;2023-02-03T08:10:20;4.53;;;1.55;;
25345;SDS011;13300;51.032;3.710;2023-02-03T08:12:46;8.50;;;1.77;;
25345;SDS011;13300;51.032;3.710;2023-02-03T08:15:12;8.02;;;2.33;;
25345;SDS011;13300;51.032;3.710;2023-02-03T08:17:38;5.07;;;1.60;;
25345;SDS011;13300;51.032;3.710;2023-02-03T08:20:06;7.05;;;1.65;;
25345;SDS011;13300;51.032;3.710;2023-02-03T08:22:32;7.30;;;1.50;;
25345;SDS011;13300;51.032;3.710;2023-02-03T08:24:58;4.30;;;1.45;;
25345;SDS011;13300;51.032;3.710;2023-02-03T08:27:34;8.00;;;1.67;;
25345;SDS011;13300;51.032;3.710;2023-02-03T08:30:02;7.32;;;2.00;;
25345;SDS011;13300;51.032;3.710;2023-02-03T08:32:28;5.45;;;1.60;;
25345;SDS011;13300;51.032;3.710;2023-02-03T08:34:54;5.18;;;1.80;;
25345;SDS011;13300;51.032;3.710;2023-02-03T08:37:21;5.65;;;1.52;;
25345;SDS011;13300;51.032;3.710;2023-02-03T08:42:17;10.60;;;2.10;;
25345;SDS011;13300;51.032;3.710;2023-02-03T08:44:43;8.20;;;2.05;;
25345;SDS011;13300;51.032;3.710;2023-02-03T08:47:09;6.25;;;1.73;;
25345;SDS011;13300;51.032;3.710;2023-02-03T08:49:36;9.07;;;1.77;;
25345;SDS011;13300;51.032;3.710;2023-02-03T08:52:04;6.43;;;2.05;;
25345;SDS011;13300;51.032;3.710;2023-02-03T08:54:31;7.03;;;1.85;;
25345;SDS011;13300;51.032;3.710;2023-02-03T08:56:57;6.05;;;1.98;;
25345;SDS011;13300;51.032;3.710;2023-02-03T08:59:23;6.90;;;1.85;;
25345;SDS011;13300;51.032;3.710;2023-02-03T09:01:49;7.68;;;2.33;;
25345;SDS011;13300;51.032;3.710;2023-02-03T09:04:16;6.07;;;1.98;;
25345;SDS011;13300;51.032;3.710;2023-02-03T09:06:44;6.55;;;2.03;;
25345;SDS011;13300;51.032;3.710;2023-02-03T09:09:12;11.15;;;3.00;;
25345;SDS011;13300;51.032;3.710;2023-02-03T09:11:39;8.27;;;2.40;;
25345;SDS011;13300;51.032;3.710;2023-02-03T09:14:06;8.38;;;2.55;;
25345;SDS011;13300;51.032;3.710;2023-02-03T09:16:32;12.45;;;3.00;;
25345;SDS011;13300;51.032;3.710;2023-02-03T09:18:58;8.18;;;2.72;;
25345;SDS011;13300;51.032;3.710;2023-02-03T09:21:24;6.55;;;3.13;;
25345;SDS011;13300;51.032;3.710;2023-02-03T09:23:50;8.85;;;2.55;;
25345;SDS011;13300;51.032;3.710;2023-02-03T09:26:16;9.70;;;2.67;;
25345;SDS011;13300;51.032;3.710;2023-02-03T09:28:43;7.80;;;2.58;;
25345;SDS011;13300;51.032;3.710;2023-02-03T09:31:10;7.90;;;2.28;;
25345;SDS011;13300;51.032;3.710;2023-02-03T09:33:41;5.55;;;2.28;;
25345;SDS011;13300;51.032;3.710;2023-02-03T09:36:08;7.25;;;2.80;;
25345;SDS011;13300;51.032;3.710;2023-02-03T09:38:36;10.55;;;2.90;;
25345;SDS011;13300;51.032;3.710;2023-02-03T09:41:18;9.05;;;2.40;;
25345;SDS011;13300;51.032;3.710;2023-02-03T09:46:29;9.10;;;3.22;;
25345;SDS011;13300;51.032;3.710;2023-02-03T09:51:49;4.18;;;1.77;;
25345;SDS011;13300;51.032;3.710;2023-02-03T09:57:46;6.90;;;2.00;;
25345;SDS011;13300;51.032;3.710;2023-02-03T10:08:51;7.13;;;1.70;;
25345;SDS011;13300;51.032;3.710;2023-02-03T10:12:29;6.38;;;2.20;;
25345;SDS011;13300;51.032;3.710;2023-02-03T10:17:34;9.18;;;2.35;;
25345;SDS011;13300;51.032;3.710;2023-02-03T10:20:14;12.93;;;2.78;;
25345;SDS011;13300;51.032;3.710;2023-02-03T10:22:55;5.37;;;2.13;;
25345;SDS011;13300;51.032;3.710;2023-02-03T10:25:43;5.85;;;1.98;;
25345;SDS011;13300;51.032;3.710;2023-02-03T10:28:19;5.38;;;2.30;;
25345;SDS011;13300;51.032;3.710;2023-02-03T10:30:53;5.25;;;2.13;;
25345;SDS011;13300;51.032;3.710;2023-02-03T10:33:27;7.95;;;1.90;;
25345;SDS011;13300;51.032;3.710;2023-02-03T10:35:59;4.40;;;2.03;;
25345;SDS011;13300;51.032;3.710;2023-02-03T10:41:34;6.45;;;2.10;;
25345;SDS011;13300;51.032;3.710;2023-02-03T10:44:02;5.43;;;1.73;;
25345;SDS011;13300;51.032;3.710;2023-02-03T10:46:33;4.75;;;1.92;;
25345;SDS011;13300;51.032;3.710;2023-02-03T10:49:02;8.50;;;2.35;;
25345;SDS011;13300;51.032;3.710;2023-02-03T10:51:32;5.38;;;1.88;;
25345;SDS011;13300;51.032;3.710;2023-02-03T10:54:25;8.52;;;2.05;;
25345;SDS011;13300;51.032;3.710;2023-02-03T10:56:56;7.05;;;2.22;;
25345;SDS011;13300;51.032;3.710;2023-02-03T10:59:35;10.20;;;2.47;;
25345;SDS011;13300;51.032;3.710;2023-02-03T11:02:08;8.98;;;2.33;;
25345;SDS011;13300;51.032;3.710;2023-02-03T11:04:45;9.60;;;2.90;;
25345;SDS011;13300;51.032;3.710;2023-02-03T11:07:22;7.00;;;1.98;;
25345;SDS011;13300;51.032;3.710;2023-02-03T11:09:52;9.43;;;2.10;;
25345;SDS011;13300;51.032;3.710;2023-02-03T11:12:18;5.70;;;2.00;;
25345;SDS011;13300;51.032;3.710;2023-02-03T11:14:49;5.72;;;2.17;;
25345;SDS011;13300;51.032;3.710;2023-02-03T11:17:20;8.50;;;2.40;;
25345;SDS011;13300;51.032;3.710;2023-02-03T11:19:48;6.43;;;2.28;;
25345;SDS011;13300;51.032;3.710;2023-02-03T11:25:22;8.90;;;2.33;;
25345;SDS011;13300;51.032;3.710;2023-02-03T11:27:54;6.53;;;2.00;;
25345;SDS011;13300;51.032;3.710;2023-02-03T11:30:23;9.75;;;2.60;;
25345;SDS011;13300;51.032;3.710;2023-02-03T11:32:54;8.15;;;2.15;;
25345;SDS011;13300;51.032;3.710;2023-02-03T11:38:33;10.55;;;2.72;;
25345;SDS011;13300;51.032;3.710;2023-02-03T11:41:04;8.10;;;2.10;;
25345;SDS011;13300;51.032;3.710;2023-02-03T11:43:30;5.15;;;1.88;;
25345;SDS011;13300;51.032;3.710;2023-02-03T11:46:02;11.13;;;2.45;;
25345;SDS011;13300;51.032;3.710;2023-02-03T11:57:05;8.27;;;2.05;;
25345;SDS011;13300;51.032;3.710;2023-02-03T11:59:35;6.53;;;1.52;;
25345;SDS011;13300;51.032;3.710;2023-02-03T12:02:32;7.97;;;1.95;;
25345;SDS011;13300;51.032;3.710;2023-02-03T12:08:31;9.00;;;2.25;;
25345;SDS011;13300;51.032;3.710;2023-02-03T12:10:50;3.58;;;1.52;;
25345;SDS011;13300;51.032;3.710;2023-02-03T12:13:48;9.35;;;1.67;;
25345;SDS011;13300;51.032;3.710;2023-02-03T12:21:48;7.60;;;1.77;;
25345;SDS011;13300;51.032;3.710;2023-02-03T12:27:03;6.70;;;2.10;;
25345;SDS011;13300;51.032;3.710;2023-02-03T12:29:38;5.80;;;1.60;;
25345;SDS011;13300;51.032;3.710;2023-02-03T12:34:58;4.43;;;1.27;;
25345;SDS011;13300;51.032;3.710;2023-02-03T12:45:13;6.97;;;2.00;;
25345;SDS011;13300;51.032;3.710;2023-02-03T12:47:50;3.95;;;1.80;;
25345;SDS011;13300;51.032;3.710;2023-02-03T12:50:36;5.93;;;1.70;;
25345;SDS011;13300;51.032;3.710;2023-02-03T12:53:06;3.08;;;1.23;;
25345;SDS011;13300;51.032;3.710;2023-02-03T12:55:42;4.07;;;1.52;;
25345;SDS011;13300;51.032;3.710;2023-02-03T12:58:19;6.93;;;1.67;;
25345;SDS011;13300;51.032;3.710;2023-02-03T13:00:53;4.85;;;1.83;;
25345;SDS011;13300;51.032;3.710;2023-02-03T13:10:05;7.63;;;1.80;;
25345;SDS011;13300;51.032;3.710;2023-02-03T13:16:49;4.72;;;1.55;;
25345;SDS011;13300;51.032;3.710;2023-02-03T13:19:20;5.97;;;1.77;;
25345;SDS011;13300;51.032;3.710;2023-02-03T13:21:49;7.55;;;1.90;;
25345;SDS011;13300;51.032;3.710;2023-02-03T13:24:15;5.85;;;1.30;;
25345;SDS011;13300;51.032;3.710;2023-02-03T13:26:51;8.80;;;1.40;;
25345;SDS011;13300;51.032;3.710;2023-02-03T13:29:49;7.90;;;1.70;;
25345;SDS011;13300;51.032;3.710;2023-02-03T13:37:59;4.68;;;1.90;;
25345;SDS011;13300;51.032;3.710;2023-02-03T13:43:30;4.30;;;1.73;;
25345;SDS011;13300;51.032;3.710;2023-02-03T13:46:02;6.93;;;1.67;;
25345;SDS011;13300;51.032;3.710;2023-02-03T13:48:29;4.93;;;1.65;;
25345;SDS011;13300;51.032;3.710;2023-02-03T13:51:16;6.85;;;1.80;;
25345;SDS011;13300;51.032;3.710;2023-02-03T13:53:48;6.18;;;1.75;;
25345;SDS011;13300;51.032;3.710;2023-02-03T13:56:20;8.57;;;1.80;;
25345;SDS011;13300;51.032;3.710;2023-02-03T13:59:25;4.65;;;1.70;;
25345;SDS011;13300;51.032;3.710;2023-02-03T14:01:39;6.45;;;1.77;;
25345;SDS011;13300;51.032;3.710;2023-02-03T14:04:07;5.13;;;1.75;;
25345;SDS011;13300;51.032;3.710;2023-02-03T14:07:00;3.80;;;1.75;;
25345;SDS011;13300;51.032;3.710;2023-02-03T14:12:19;3.63;;;1.70;;
25345;SDS011;13300;51.032;3.710;2023-02-03T14:14:55;5.75;;;1.90;;
25345;SDS011;13300;51.032;3.710;2023-02-03T14:20:00;5.68;;;2.00;;
25345;SDS011;13300;51.032;3.710;2023-02-03T14:22:29;4.10;;;1.57;;
25345;SDS011;13300;51.032;3.710;2023-02-03T14:24:57;6.47;;;1.75;;
25345;SDS011;13300;51.032;3.710;2023-02-03T14:27:30;4.78;;;1.63;;
25345;SDS011;13300;51.032;3.710;2023-02-03T14:30:06;5.68;;;2.05;;
25345;SDS011;13300;51.032;3.710;2023-02-03T14:35:16;6.50;;;1.90;;
25345;SDS011;13300;51.032;3.710;2023-02-03T14:37:50;4.22;;;1.90;;
25345;SDS011;13300;51.032;3.710;2023-02-03T14:40:22;4.68;;;1.63;;
25345;SDS011;13300;51.032;3.710;2023-02-03T14:54:22;6.68;;;1.90;;
25345;SDS011;13300;51.032;3.710;2023-02-03T15:00:05;4.93;;;1.83;;
25345;SDS011;13300;51.032;3.710;2023-02-03T15:02:35;6.22;;;1.70;;
25345;SDS011;13300;51.032;3.710;2023-02-03T15:07:51;3.90;;;1.63;;
25345;SDS011;13300;51.032;3.710;2023-02-03T15:10:18;6.05;;;1.98;;
25345;SDS011;13300;51.032;3.710;2023-02-03T15:12:48;5.63;;;1.65;;
25345;SDS011;13300;51.032;3.710;2023-02-03T15:17:51;7.25;;;2.10;;
25345;SDS011;13300;51.032;3.710;2023-02-03T15:23:20;6.55;;;2.13;;
25345;SDS011;13300;51.032;3.710;2023-02-03T15:25:54;3.47;;;1.70;;
25345;SDS011;13300;51.032;3.710;2023-02-03T15:28:22;6.55;;;2.25;;
25345;SDS011;13300;51.032;3.710;2023-02-03T15:30:53;4.97;;;1.90;;
25345;SDS011;13300;51.032;3.710;2023-02-03T15:33:22;6.40;;;2.13;;
25345;SDS011;13300;51.032;3.710;2023-02-03T15:35:49;8.18;;;2.40;;
25345;SDS011;13300;51.032;3.710;2023-02-03T15:38:25;2.40;;;1.73;;
25345;SDS011;13300;51.032;3.710;2023-02-03T15:40:55;7.32;;;2.22;;
25345;SDS011;13300;51.032;3.710;2023-02-03T15:43:25;6.35;;;2.10;;
25345;SDS011;13300;51.032;3.710;2023-02-03T15:46:06;9.55;;;2.38;;
25345;SDS011;13300;51.032;3.710;2023-02-03T15:48:43;6.53;;;2.20;;
25345;SDS011;13300;51.032;3.710;2023-02-03T15:51:33;4.60;;;2.05;;
25345;SDS011;13300;51.032;3.710;2023-02-03T15:56:43;11.50;;;2.60;;
25345;SDS011;13300;51.032;3.710;2023-02-03T15:59:35;7.07;;;2.50;;
25345;SDS011;13300;51.032;3.710;2023-02-03T16:02:27;6.22;;;2.38;;
25345;SDS011;13300;51.032;3.710;2023-02-03T16:05:01;7.22;;;2.30;;
25345;SDS011;13300;51.032;3.710;2023-02-03T16:07:44;7.47;;;2.40;;
25345;SDS011;13300;51.032;3.710;2023-02-03T16:10:30;6.28;;;2.50;;
25345;SDS011;13300;51.032;3.710;2023-02-03T16:13:31;5.10;;;2.33;;
25345;SDS011;13300;51.032;3.710;2023-02-03T16:15:58;7.80;;;2.75;;
25345;SDS011;13300;51.032;3.710;2023-02-03T16:18:26;5.20;;;2.63;;
25345;SDS011;13300;51.032;3.710;2023-02-03T16:20:53;9.15;;;2.80;;
25345;SDS011;13300;51.032;3.710;2023-02-03T16:23:20;9.07;;;2.80;;
25345;SDS011;13300;51.032;3.710;2023-02-03T16:26:16;6.13;;;2.78;;
25345;SDS011;13300;51.032;3.710;2023-02-03T16:28:53;6.90;;;2.67;;
25345;SDS011;13300;51.032;3.710;2023-02-03T16:31:47;6.47;;;2.55;;
25345;SDS011;13300;51.032;3.710;2023-02-03T16:34:33;7.63;;;2.67;;
25345;SDS011;13300;51.032;3.710;2023-02-03T16:37:28;13.18;;;3.17;;
25345;SDS011;13300;51.032;3.710;2023-02-03T16:40:14;6.15;;;2.90;;
25345;SDS011;13300;51.032;3.710;2023-02-03T16:43:04;10.52;;;3.03;;
25345;SDS011;13300;51.032;3.710;2023-02-03T16:45:55;5.35;;;2.88;;
25345;SDS011;13300;51.032;3.710;2023-02-03T16:48:40;7.80;;;2.95;;
25345;SDS011;13300;51.032;3.710;2023-02-03T16:51:28;9.77;;;3.20;;
25345;SDS011;13300;51.032;3.710;2023-02-03T16:56:54;7.15;;;2.58;;
25345;SDS011;13300;51.032;3.710;2023-02-03T16:59:28;8.30;;;3.28;;
25345;SDS011;13300;51.032;3.710;2023-02-03T17:02:31;19.20;;;4.28;;
25345;SDS011;13300;51.032;3.710;2023-02-03T17:05:14;9.60;;;3.47;;
25345;SDS011;13300;51.032;3.710;2023-02-03T17:07:55;8.32;;;3.40;;
25345;SDS011;13300;51.032;3.710;2023-02-03T17:10:27;8.27;;;3.40;;
25345;SDS011;13300;51.032;3.710;2023-02-03T17:13:00;7.82;;;3.58;;
25345;SDS011;13300;51.032;3.710;2023-02-03T17:15:31;9.23;;;3.50;;
25345;SDS011;13300;51.032;3.710;2023-02-03T17:18:00;12.30;;;4.03;;
25345;SDS011;13300;51.032;3.710;2023-02-03T17:20:45;7.85;;;3.30;;
25345;SDS011;13300;51.032;3.710;2023-02-03T17:23:18;8.60;;;3.42;;
25345;SDS011;13300;51.032;3.710;2023-02-03T17:25:54;10.50;;;3.60;;
25345;SDS011;13300;51.032;3.710;2023-02-03T17:28:22;12.77;;;3.30;;
25345;SDS011;13300;51.032;3.710;2023-02-03T17:31:02;11.55;;;3.70;;
25345;SDS011;13300;51.032;3.710;2023-02-03T17:33:58;9.55;;;4.22;;
25345;SDS011;13300;51.032;3.710;2023-02-03T17:36:39;16.15;;;6.20;;
25345;SDS011;13300;51.032;3.710;2023-02-03T17:39:32;10.10;;;4.55;;
25345;SDS011;13300;51.032;3.710;2023-02-03T17:42:21;9.95;;;3.90;;
25345;SDS011;13300;51.032;3.710;2023-02-03T17:45:02;8.38;;;3.72;;